Impacts TAF Board
For situational awareness. Not to be used for flight planning purposes.
IDs:

KCVG - Cincinnati Intl, KY, US

Issued at 1739 UTC 20 Jan 2019
Updated at 1808 UTC 20 Jan 2019
Potential Impact None Slight Moderate High
Time1752Z 20/19Z 20/20Z 20/21Z 20/22Z 20/23Z 21/00Z 21/01Z 21/02Z 21/03Z 21/04Z 21/05Z 21/06Z 21/07Z>>
Type OBS PRVL PRVL PRVL PRVL PRVL PRVL PRVL PRVL PRVL PRVL PRVL PRVL PRVL
VIS 10 >6 >6 >6 >6 >6 >6 >6 >6 >6 >6 >6 >6 >6
CIG 150 -- -- -- -- -- -- -- -- 35 35 35 35 --
Cover BKN SCT SCT SCT SCT SCT SCT SCT SCT BKN BKN BKN BKN SKC
FltCat VFR VFR VFR VFR VFR VFR VFR VFR VFR VFR VFR VFR VFR VFR
WX -- -- -- -- -- -- -- -- -- -- -- -- -- --
WDir 330 330 330 330 330 330 330 330 330 330 330 330 330 330
WSpd 15 10 10 10 10 10 10 10 10 6 6 6 6 3
WGst -- -- -- -- -- -- -- -- -- -- -- -- -- --
Raw TAF
KCVG 201739Z 2018/2124 33010KT P6SM SCT150
  FM210300 33006KT P6SM BKN035
  FM210700 33003KT P6SM SKC
  FM211300 04005KT P6SM SCT250
  FM211900 09006KT P6SM SCT150


Raw METAR
KCVG 201752Z 33015KT 10SM SCT130 BKN150 BKN250 M10/M17 A3018 RMK AO2 SLP233 4/007 931000 933006 60000 T11001167 11100 21122 51013
KCVG 201652Z 33011KT 10SM FEW024 SCT150 BKN250 M11/M16 A3018 RMK AO2 SLP232 T11111161 $
KCVG 201552Z 35014KT 10SM FEW024 SCT130 BKN150 M11/M16 A3017 RMK AO2 SLP227 T11111156 $

METAR Board
Radar Display
Forecast Discussion
For situational awareness. Not to be used for flight planning purposes.